Time;durP1;ratioP1;P1;durP2;ratioP2;P2;SDS_P1;SDS_P2;PMS_P1;PMS_P2;Temp;Humidity;BMP_temperature;BMP_pressure;BME280_temperature;BME280_humidity;BME280_pressure;Samples;Min_cycle;Max_cycle;Signal;HPM_P1;HPM_P2
2021/03/27 00:02:08;;;;;;;1.80;0.63;;;;;;;5.84;100.00;101408.77;1744274;82;26348;-76
2021/03/27 00:04:42;;;;;;;3.43;1.13;;;;;;;5.80;100.00;101410.33;1810311;79;26266;-75
2021/03/27 00:07:17;;;;;;;3.27;0.87;;;;;;;5.77;100.00;101411.34;1810328;76;26244;-76
2021/03/27 00:09:49;;;;;;;2.97;0.93;;;;;;;5.68;100.00;101414.16;1810543;79;26294;-77
2021/03/27 00:12:25;;;;;;;5.07;1.10;;;;;;;5.61;100.00;101414.80;1810479;79;26303;-77
2021/03/27 00:14:59;;;;;;;3.13;1.00;;;;;;;5.68;100.00;101414.16;1810573;78;26236;-76
2021/03/27 00:17:37;;;;;;;3.40;1.00;;;;;;;5.63;100.00;101419.01;1810372;79;26302;-77
2021/03/27 00:20:11;;;;;;;3.70;0.93;;;;;;;5.72;100.00;101422.25;1810364;78;26205;-76
2021/03/27 00:22:45;;;;;;;2.33;1.03;;;;;;;5.69;100.00;101426.30;1810525;79;26216;-76
2021/03/27 00:25:19;;;;;;;3.60;0.97;;;;;;;5.63;100.00;101436.08;1810528;78;26209;-76
2021/03/27 00:27:54;;;;;;;3.03;1.00;;;;;;;5.71;100.00;101437.10;1772418;81;26722;-75
2021/03/27 00:30:27;;;;;;;4.77;0.80;;;;;;;5.68;100.00;101437.05;1744431;82;26289;-74
2021/03/27 00:32:59;;;;;;;4.77;1.10;;;;;;;5.55;100.00;101437.27;1810254;79;26695;-75
2021/03/27 00:35:33;;;;;;;4.93;0.90;;;;;;;5.54;100.00;101435.59;1810311;79;26793;-75
2021/03/27 00:38:06;;;;;;;2.97;0.63;;;;;;;5.48;100.00;101431.02;1810346;79;26205;-77
2021/03/27 00:40:42;;;;;;;4.20;0.97;;;;;;;5.54;100.00;101439.72;1771620;81;26223;-75
2021/03/27 00:43:15;;;;;;;3.60;0.90;;;;;;;5.60;100.00;101443.45;1810282;79;26643;-75
2021/03/27 00:45:47;;;;;;;4.33;1.20;;;;;;;5.54;100.00;101442.48;1772559;81;26294;-76
2021/03/27 00:48:20;;;;;;;3.23;1.00;;;;;;;5.44;100.00;101436.16;1744272;82;26653;-76
2021/03/27 00:50:53;;;;;;;2.63;0.97;;;;;;;5.48;100.00;101438.75;1810312;78;26213;-77
2021/03/27 00:53:26;;;;;;;3.93;1.17;;;;;;;5.52;100.00;101449.31;1772470;81;26224;-75
2021/03/27 00:55:59;;;;;;;5.50;1.23;;;;;;;5.53;100.00;101442.17;1810481;79;26197;-75
2021/03/27 00:58:32;;;;;;;3.43;1.17;;;;;;;5.42;100.00;101439.71;1811023;78;26341;-75
2021/03/27 01:01:06;;;;;;;3.77;1.13;;;;;;;5.49;100.00;101440.44;1772489;81;26227;-75
2021/03/27 01:03:39;;;;;;;4.43;1.47;;;;;;;5.34;100.00;101444.73;1810259;79;26232;-76
2021/03/27 01:06:12;;;;;;;5.23;1.20;;;;;;;5.34;100.00;101446.11;1810390;79;26256;-75
2021/03/27 01:08:44;;;;;;;2.30;0.90;;;;;;;5.26;100.00;101441.75;1772391;78;26267;-76
2021/03/27 01:11:17;;;;;;;5.93;1.37;;;;;;;5.38;100.00;101452.81;1744362;82;26223;-77
2021/03/27 01:13:50;;;;;;;5.93;1.57;;;;;;;5.38;100.00;101452.28;1810365;79;26307;-77
2021/03/27 01:16:23;;;;;;;5.90;1.40;;;;;;;5.31;100.00;101455.66;1810254;79;26201;-74
2021/03/27 01:18:57;;;;;;;6.43;1.20;;;;;;;5.33;100.00;101455.44;1810345;79;26205;-77
2021/03/27 01:21:30;;;;;;;5.63;1.57;;;;;;;5.42;100.00;101453.48;1772751;81;26630;-77
2021/03/27 01:24:02;;;;;;;7.90;1.53;;;;;;;5.32;100.00;101458.72;1810330;79;26279;-75
2021/03/27 01:26:38;;;;;;;5.53;1.60;;;;;;;5.33;100.00;101461.79;1810302;79;26205;-76
2021/03/27 01:29:11;;;;;;;6.20;1.70;;;;;;;5.33;100.00;101470.59;1810285;79;26330;-76
2021/03/27 01:31:45;;;;;;;5.30;1.60;;;;;;;5.24;100.00;101473.38;1810249;78;26741;-77
2021/03/27 01:34:22;;;;;;;6.07;1.53;;;;;;;5.35;100.00;101473.39;1810289;79;26344;-75
2021/03/27 01:36:55;;;;;;;5.83;1.43;;;;;;;5.32;100.00;101473.87;1810321;79;26639;-75
2021/03/27 01:39:28;;;;;;;5.13;1.30;;;;;;;5.23;100.00;101478.03;1810546;78;26609;-76
2021/03/27 01:42:03;;;;;;;3.83;1.30;;;;;;;5.16;100.00;101483.34;1810251;79;26659;-76
2021/03/27 01:44:47;;;;;;;7.77;1.60;;;;;;;5.17;100.00;101479.53;1810342;79;26198;-75
2021/03/27 01:47:23;;;;;;;6.30;1.43;;;;;;;5.09;100.00;101490.34;1810254;79;26255;-75
2021/03/27 01:50:17;;;;;;;6.17;1.43;;;;;;;5.15;100.00;101494.05;1810391;78;26212;-75
2021/03/27 01:53:07;;;;;;;9.27;1.63;;;;;;;5.17;100.00;101498.80;1772547;81;26751;-76
2021/03/27 01:56:01;;;;;;;5.63;1.40;;;;;;;5.11;100.00;101501.94;1810733;79;26201;-75
2021/03/27 01:58:34;;;;;;;2.73;1.07;;;;;;;5.21;100.00;101495.34;1810438;79;26181;-76
2021/03/27 02:01:08;;;;;;;9.10;1.87;;;;;;;5.26;100.00;101500.16;1810196;79;26270;-76
2021/03/27 02:03:43;;;;;;;6.20;1.73;;;;;;;5.27;100.00;101498.52;1810222;79;26295;-76
2021/03/27 02:06:17;;;;;;;8.00;2.57;;;;;;;5.31;100.00;101501.64;1772505;81;26220;-75
2021/03/27 02:08:52;;;;;;;5.03;1.87;;;;;;;5.22;100.00;101508.02;1810090;76;26311;-76
2021/03/27 02:11:28;;;;;;;9.87;1.87;;;;;;;5.24;100.00;101503.67;1810159;78;26702;-76
2021/03/27 02:14:03;;;;;;;6.67;1.30;;;;;;;5.22;100.00;101511.34;1772286;81;26219;-76
2021/03/27 02:16:36;;;;;;;4.30;1.40;;;;;;;5.35;100.00;101511.95;1810208;79;26208;-76
2021/03/27 02:19:21;;;;;;;7.10;2.03;;;;;;;5.28;100.00;101509.01;1810379;79;26766;-77
2021/03/27 02:22:00;;;;;;;8.37;2.47;;;;;;;5.26;100.00;101524.95;1772557;81;26215;-76
2021/03/27 02:24:38;;;;;;;10.80;2.00;;;;;;;5.11;100.00;101530.86;1810409;79;26315;-76
2021/03/27 02:27:12;;;;;;;7.30;1.90;;;;;;;5.18;100.00;101522.52;1772654;80;26224;-77
2021/03/27 02:30:11;;;;;;;8.93;1.90;;;;;;;5.15;100.00;101534.83;1810207;79;26651;-77
2021/03/27 02:33:03;;;;;;;7.63;1.83;;;;;;;5.29;100.00;101537.70;1810227;79;26193;-74
2021/03/27 02:35:40;;;;;;;6.97;1.77;;;;;;;5.38;100.00;101539.06;1810229;79;26283;-74
2021/03/27 02:38:30;;;;;;;6.53;1.70;;;;;;;5.42;100.00;101544.94;1810273;79;26256;-75
2021/03/27 02:41:18;;;;;;;5.90;1.60;;;;;;;5.32;100.00;101549.63;1810305;78;26229;-75
2021/03/27 02:43:51;;;;;;;5.43;1.40;;;;;;;5.35;100.00;101546.39;1810441;78;26601;-75
2021/03/27 02:46:25;;;;;;;6.20;1.67;;;;;;;5.28;100.00;101559.43;1810576;78;26205;-74
2021/03/27 02:48:58;;;;;;;7.40;1.50;;;;;;;5.24;100.00;101571.98;1772400;81;26744;-74
2021/03/27 02:51:32;;;;;;;6.83;1.40;;;;;;;5.30;100.00;101566.09;1810333;78;26284;-76
2021/03/27 02:54:11;;;;;;;2.87;1.10;;;;;;;5.28;100.00;101573.20;1772379;81;26244;-76
2021/03/27 02:56:44;;;;;;;3.30;1.13;;;;;;;5.15;100.00;101570.62;1810175;79;26189;-77
2021/03/27 02:59:20;;;;;;;7.33;1.63;;;;;;;5.27;100.00;101573.42;1772330;80;26219;-74
2021/03/27 03:01:56;;;;;;;3.83;1.17;;;;;;;5.24;100.00;101575.28;1810292;78;26210;-75
2021/03/27 03:04:33;;;;;;;5.27;1.67;;;;;;;5.20;100.00;101569.93;1810141;78;26209;-74
2021/03/27 03:07:07;;;;;;;4.07;0.87;;;;;;;5.22;100.00;101574.12;1772418;81;26651;-74
2021/03/27 03:09:41;;;;;;;2.90;0.70;;;;;;;5.19;100.00;101586.98;1810213;76;26708;-75
2021/03/27 03:12:16;;;;;;;2.27;0.80;;;;;;;5.20;100.00;101587.30;1810651;78;26283;-74
2021/03/27 03:14:53;;;;;;;1.77;1.20;;;;;;;5.17;100.00;101591.05;1810680;79;26205;-75
2021/03/27 03:17:30;;;;;;;4.00;1.00;;;;;;;5.09;100.00;101592.75;1772471;81;26282;-74
2021/03/27 03:20:06;;;;;;;3.43;1.00;;;;;;;5.15;100.00;101604.20;1810361;79;26209;-75
2021/03/27 03:22:39;;;;;;;4.43;0.90;;;;;;;5.15;100.00;101605.05;1810351;78;26279;-75
2021/03/27 03:25:13;;;;;;;3.43;0.90;;;;;;;5.13;100.00;101618.75;1810506;79;26327;-74
2021/03/27 03:27:50;;;;;;;5.23;1.30;;;;;;;5.13;100.00;101612.72;1772445;81;26294;-75
2021/03/27 03:30:34;;;;;;;1.77;0.80;;;;;;;5.03;100.00;101619.28;1809869;78;26687;-74
2021/03/27 03:33:21;;;;;;;4.97;0.80;;;;;;;5.09;100.00;101622.52;1810474;79;26719;-74
2021/03/27 03:35:55;;;;;;;4.67;1.03;;;;;;;5.06;100.00;101624.33;1810253;78;26691;-75
2021/03/27 03:38:53;;;;;;;5.07;1.10;;;;;;;5.10;100.00;101634.34;1774837;81;33277;-75
2021/03/27 03:41:37;;;;;;;4.27;1.07;;;;;;;5.17;100.00;101634.59;1804769;79;26676;-74
2021/03/27 03:44:10;;;;;;;1.93;0.80;;;;;;;5.13;100.00;101644.91;1745933;82;26245;-74
2021/03/27 03:46:50;;;;;;;5.63;0.83;;;;;;;5.05;100.00;101645.51;1805054;79;26662;-74
2021/03/27 03:49:56;;;;;;;4.23;1.00;;;;;;;5.05;100.00;101655.14;1745557;82;26273;-75
2021/03/27 03:52:39;;;;;;;5.00;0.80;;;;;;;5.03;100.00;101655.92;1805241;79;26729;-75
2021/03/27 03:55:15;;;;;;;1.87;0.80;;;;;;;4.88;100.00;101669.20;1745625;82;26288;-75
2021/03/27 03:58:09;;;;;;;2.87;0.97;;;;;;;5.05;100.00;101667.53;1805049;79;26643;-74
2021/03/27 04:00:43;;;;;;;4.33;0.97;;;;;;;5.02;100.00;101676.80;1745352;81;26245;-75
2021/03/27 04:03:26;;;;;;;8.03;1.57;;;;;;;5.00;100.00;101678.42;1805051;79;26698;-75
2021/03/27 04:06:00;;;;;;;3.67;1.20;;;;;;;5.09;100.00;101682.25;1745783;82;26704;-75
2021/03/27 04:08:35;;;;;;;4.13;1.03;;;;;;;4.98;100.00;101694.31;1804987;79;26753;-74
2021/03/27 04:11:08;;;;;;;3.07;0.90;;;;;;;4.96;100.00;101694.24;1772424;78;26795;-75
2021/03/27 04:13:42;;;;;;;5.40;1.10;;;;;;;5.00;100.00;101696.31;1808623;79;26201;-75
2021/03/27 04:16:15;;;;;;;3.43;1.00;;;;;;;4.97;100.00;101704.16;1810382;79;26200;-74
2021/03/27 04:18:48;;;;;;;6.67;1.77;;;;;;;5.00;100.00;101708.70;1810310;79;26271;-74
2021/03/27 04:21:21;;;;;;;3.83;1.20;;;;;;;4.99;100.00;101717.18;1772505;81;26664;-74
2021/03/27 04:23:55;;;;;;;3.63;1.10;;;;;;;5.02;100.00;101720.84;1744289;82;26265;-74
2021/03/27 04:26:30;;;;;;;8.43;1.33;;;;;;;4.92;100.00;101717.80;1810272;79;26620;-75
2021/03/27 04:29:19;;;;;;;5.17;1.03;;;;;;;5.03;100.00;101726.14;1810363;79;26668;-74
2021/03/27 04:31:53;;;;;;;5.27;1.00;;;;;;;5.05;100.00;101731.39;1810307;78;26201;-74
2021/03/27 04:34:26;;;;;;;6.77;1.60;;;;;;;4.99;100.00;101737.30;1810982;78;26205;-75
2021/03/27 04:37:01;;;;;;;4.67;1.20;;;;;;;5.05;100.00;101734.15;1772433;80;26219;-75
2021/03/27 04:39:34;;;;;;;6.43;1.50;;;;;;;5.05;100.00;101741.88;1810480;79;26253;-75
2021/03/27 04:42:07;;;;;;;3.43;1.27;;;;;;;5.06;100.00;101745.48;1772437;81;26409;-75
2021/03/27 04:44:42;;;;;;;3.90;1.20;;;;;;;5.04;100.00;101753.14;1810319;79;26276;-76
2021/03/27 04:47:17;;;;;;;4.77;1.10;;;;;;;4.97;100.00;101750.44;1810182;79;26263;-75
2021/03/27 04:49:53;;;;;;;3.90;1.40;;;;;;;4.98;100.00;101759.02;1772391;81;26726;-74
2021/03/27 04:52:28;;;;;;;5.13;1.40;;;;;;;4.99;100.00;101759.33;1809347;78;26271;-75
2021/03/27 04:55:03;;;;;;;4.60;1.10;;;;;;;4.96;100.00;101758.94;1809910;79;26299;-75
2021/03/27 04:57:38;;;;;;;5.90;1.33;;;;;;;4.98;100.00;101765.05;1810953;78;26230;-75
2021/03/27 05:00:25;;;;;;;6.45;1.20;;;;;;;5.08;100.00;101770.05;1802093;78;932685;-76
2021/03/27 05:03:04;;;;;;;4.97;1.20;;;;;;;4.95;100.00;101760.00;1772434;81;26255;-75
2021/03/27 05:05:39;;;;;;;6.13;2.13;;;;;;;4.99;100.00;101786.02;1763758;81;26701;-74
2021/03/27 05:08:14;;;;;;;5.73;1.30;;;;;;;4.92;100.00;101777.80;1804446;79;26287;-74
2021/03/27 05:10:47;;;;;;;6.07;1.70;;;;;;;4.88;100.00;101786.20;1804478;75;26773;-75
2021/03/27 05:13:21;;;;;;;3.53;1.13;;;;;;;4.92;100.00;101792.94;1804647;79;26255;-74
2021/03/27 05:16:09;;;;;;;2.37;1.10;;;;;;;4.91;100.00;101805.04;1804053;79;26376;-75
2021/03/27 05:18:45;;;;;;;7.57;1.33;;;;;;;4.90;100.00;101802.50;1804846;79;26624;-74
2021/03/27 05:21:40;;;;;;;4.83;1.30;;;;;;;4.90;100.00;101803.88;1804683;79;26694;-75
2021/03/27 05:24:21;;;;;;;3.60;1.27;;;;;;;4.90;100.00;101814.89;1804294;79;26645;-76
2021/03/27 05:27:03;;;;;;;6.87;1.50;;;;;;;4.86;100.00;101824.13;1804756;79;26680;-75
2021/03/27 05:29:54;;;;;;;6.53;1.43;;;;;;;4.90;100.00;101824.52;1804063;79;26691;-76
2021/03/27 05:32:34;;;;;;;5.57;1.43;;;;;;;4.92;100.00;101829.28;1804637;79;26205;-75
2021/03/27 05:35:07;;;;;;;6.13;0.93;;;;;;;4.90;100.00;101830.88;1804398;79;26680;-74
2021/03/27 05:37:41;;;;;;;7.00;1.60;;;;;;;4.80;100.00;101833.80;1803484;79;26197;-74
2021/03/27 05:40:55;;;;;;;6.37;1.60;;;;;;;4.77;100.00;101830.98;1804062;79;26770;-76
2021/03/27 05:44:11;;;;;;;3.97;1.53;;;;;;;4.83;100.00;101841.11;1804705;79;26217;-75
2021/03/27 05:47:31;;;;;;;6.27;1.17;;;;;;;4.77;100.00;101844.73;1766797;79;26323;-76
2021/03/27 05:50:29;;;;;;;5.17;1.33;;;;;;;4.69;100.00;101844.16;1804561;79;26323;-76
2021/03/27 05:53:29;;;;;;;3.57;1.00;;;;;;;4.74;100.00;101853.98;1804630;79;26604;-76
2021/03/27 05:56:10;;;;;;;5.50;1.53;;;;;;;4.74;100.00;101856.20;1803857;79;26698;-75
2021/03/27 05:58:57;;;;;;;3.77;1.30;;;;;;;4.70;100.00;101862.38;1803889;79;26617;-76
2021/03/27 06:01:40;;;;;;;3.90;1.03;;;;;;;4.67;100.00;101860.88;1804928;79;26267;-75
2021/03/27 06:04:57;;;;;;;5.07;1.47;;;;;;;4.73;100.00;101873.77;1804776;79;26189;-74
2021/03/27 06:08:07;;;;;;;7.20;1.60;;;;;;;4.81;100.00;101867.15;1804455;79;26267;-76
2021/03/27 06:11:10;;;;;;;7.17;1.43;;;;;;;4.78;100.00;101877.23;1804498;77;26683;-76
2021/03/27 06:14:02;;;;;;;11.17;1.73;;;;;;;4.79;100.00;101878.94;1804633;79;26272;-76
2021/03/27 06:16:50;;;;;;;4.03;1.50;;;;;;;4.84;100.00;101891.47;1804488;79;26312;-75
2021/03/27 06:19:50;;;;;;;7.77;1.40;;;;;;;4.83;100.00;101898.06;1804591;79;26182;-75
2021/03/27 06:22:31;;;;;;;7.20;1.83;;;;;;;4.89;100.00;101893.88;1735796;82;26718;-74
2021/03/27 06:25:14;;;;;;;5.60;1.40;;;;;;;4.72;100.00;101913.89;1810816;78;26245;-75
2021/03/27 06:28:21;;;;;;;7.40;1.90;;;;;;;4.80;100.00;101915.84;1810234;78;26299;-76
2021/03/27 06:31:37;;;;;;;10.77;2.60;;;;;;;4.94;100.00;101915.23;1810216;79;26733;-75
2021/03/27 06:34:43;;;;;;;8.77;1.90;;;;;;;4.93;100.00;101925.41;1807462;78;26632;-74
2021/03/27 06:37:21;;;;;;;5.47;1.47;;;;;;;4.90;100.00;101932.73;1807809;78;26299;-75
2021/03/27 06:40:25;;;;;;;5.97;1.90;;;;;;;4.95;100.00;101931.55;1810133;78;26812;-74
2021/03/27 06:43:31;;;;;;;9.23;1.87;;;;;;;4.94;100.00;101933.13;1810232;79;26186;-75
2021/03/27 06:46:09;;;;;;;6.00;1.60;;;;;;;4.97;100.00;101936.81;1810292;79;26668;-75
2021/03/27 06:49:34;;;;;;;6.03;1.47;;;;;;;5.04;100.00;101939.86;1810111;78;26757;-75
2021/03/27 06:52:15;;;;;;;9.73;1.80;;;;;;;5.10;100.00;101950.49;1810348;79;26201;-74
2021/03/27 06:55:24;;;;;;;6.33;1.83;;;;;;;5.17;100.00;101949.94;1810104;78;26376;-74
2021/03/27 06:58:19;;;;;;;7.43;2.00;;;;;;;5.18;100.00;101955.73;1806826;79;26296;-74
2021/03/27 07:00:55;;;;;;;8.27;1.97;;;;;;;5.29;100.00;101960.54;1798379;78;26209;-74
2021/03/27 07:04:11;;;;;;;6.10;1.77;;;;;;;5.33;100.00;101965.91;1809896;78;26643;-74
2021/03/27 07:07:07;;;;;;;5.53;1.43;;;;;;;5.32;100.00;101964.75;1755121;78;26193;-75
2021/03/27 07:10:13;;;;;;;6.13;2.33;;;;;;;5.45;100.00;101971.53;1810402;79;26244;-74
2021/03/27 07:13:14;;;;;;;7.20;1.80;;;;;;;5.56;100.00;101975.49;1810200;76;26265;-74
2021/03/27 07:15:57;;;;;;;10.43;1.77;;;;;;;5.50;100.00;101986.87;1810528;79;26754;-74
2021/03/27 07:18:45;;;;;;;9.73;2.00;;;;;;;5.62;100.00;102001.60;1810281;79;26213;-74
2021/03/27 07:21:54;;;;;;;6.17;2.53;;;;;;;5.72;100.00;102003.33;1810390;79;26242;-74
2021/03/27 07:24:41;;;;;;;6.00;1.60;;;;;;;5.81;100.00;102004.74;1810037;78;26201;-74
2021/03/27 07:27:45;;;;;;;8.17;1.90;;;;;;;5.86;100.00;102011.81;1809906;79;26632;-74
2021/03/27 07:30:32;;;;;;;6.80;1.30;;;;;;;5.89;100.00;102024.32;1810521;79;26287;-74
2021/03/27 07:33:51;;;;;;;4.70;1.40;;;;;;;5.99;100.00;102022.44;1810243;79;26331;-74
2021/03/27 07:37:11;;;;;;;7.10;1.57;;;;;;;6.02;100.00;102026.96;1810464;79;26212;-75
2021/03/27 07:39:48;;;;;;;9.73;1.60;;;;;;;6.17;100.00;102034.86;1810300;79;26344;-75
2021/03/27 07:42:27;;;;;;;8.10;1.53;;;;;;;6.32;100.00;102023.80;1810281;79;26629;-75
2021/03/27 07:45:07;;;;;;;6.23;1.40;;;;;;;6.40;100.00;102022.11;1809520;78;26229;-75
2021/03/27 07:48:01;;;;;;;7.90;1.73;;;;;;;6.48;100.00;102039.43;1810296;79;26189;-75
2021/03/27 07:50:51;;;;;;;6.30;1.80;;;;;;;6.54;100.00;102037.99;1809862;78;26723;-74
2021/03/27 07:53:35;;;;;;;7.10;1.70;;;;;;;6.71;100.00;102049.27;1810182;78;26318;-73
2021/03/27 07:56:34;;;;;;;9.13;1.93;;;;;;;6.81;100.00;102050.39;1809019;79;26205;-73
2021/03/27 07:59:37;;;;;;;8.33;2.00;;;;;;;6.88;100.00;102051.70;1810284;79;26201;-73
2021/03/27 08:02:23;;;;;;;6.13;1.47;;;;;;;7.13;100.00;102051.05;1810370;79;26338;-75
2021/03/27 08:05:37;;;;;;;9.33;1.73;;;;;;;7.32;100.00;102067.89;1809993;78;26651;-74
2021/03/27 08:08:48;;;;;;;6.20;1.53;;;;;;;7.47;100.00;102063.33;1810146;79;26664;-74
2021/03/27 08:11:25;;;;;;;7.63;1.60;;;;;;;7.53;100.00;102060.17;1809678;78;26659;-73
2021/03/27 08:14:19;;;;;;;8.23;1.97;;;;;;;7.72;100.00;102070.06;1810229;76;26248;-74
2021/03/27 08:17:03;;;;;;;7.17;1.70;;;;;;;7.90;100.00;102067.23;1809605;78;26660;-74
2021/03/27 08:19:50;;;;;;;6.93;1.90;;;;;;;7.88;100.00;102064.37;1809544;78;26353;-74
2021/03/27 08:22:52;;;;;;;8.10;2.50;;;;;;;7.97;100.00;102069.34;1810328;79;26627;-73
2021/03/27 08:25:27;;;;;;;4.70;1.80;;;;;;;7.95;100.00;102064.59;1801014;79;26248;-74
2021/03/27 08:28:23;;;;;;;8.93;1.83;;;;;;;8.07;100.00;102071.52;1810049;79;26209;-73
2021/03/27 08:31:23;;;;;;;7.30;2.50;;;;;;;8.06;100.00;102069.83;1801193;78;26677;-73
2021/03/27 08:34:25;;;;;;;9.93;2.63;;;;;;;8.22;100.00;102085.19;1810377;79;26632;-75
2021/03/27 08:37:19;;;;;;;10.20;2.00;;;;;;;8.29;100.00;102095.31;1808350;79;26213;-74
2021/03/27 08:40:20;;;;;;;8.60;2.27;;;;;;;8.50;100.00;102094.20;1810342;79;26661;-77
2021/03/27 08:43:23;;;;;;;9.17;2.07;;;;;;;8.47;100.00;102096.62;1810493;79;26283;-76
2021/03/27 08:46:34;;;;;;;9.73;3.30;;;;;;;8.48;100.00;102085.28;1810340;79;26194;-77
2021/03/27 08:49:41;;;;;;;7.27;1.90;;;;;;;8.56;100.00;102100.69;1810408;79;26189;-78
2021/03/27 08:52:33;;;;;;;9.10;1.80;;;;;;;8.87;100.00;102108.62;1782174;79;26193;-76
2021/03/27 08:55:19;;;;;;;8.30;1.83;;;;;;;8.85;100.00;102116.88;1810400;79;26323;-77
2021/03/27 08:58:41;;;;;;;6.37;1.90;;;;;;;8.73;100.00;102128.53;1810424;79;26194;-78
2021/03/27 09:01:41;;;;;;;11.10;2.50;;;;;;;8.67;100.00;102130.33;1774984;78;26228;-75
2021/03/27 09:04:23;;;;;;;12.57;2.57;;;;;;;8.89;100.00;102134.70;1810668;79;26681;-77
2021/03/27 09:07:03;;;;;;;11.17;2.67;;;;;;;9.20;100.00;102125.14;1810513;79;26613;-76
2021/03/27 09:10:17;;;;;;;9.30;2.67;;;;;;;9.23;100.00;102132.41;1810075;79;26209;-77
2021/03/27 09:13:27;;;;;;;9.57;2.43;;;;;;;9.19;100.00;102135.92;1807363;75;26244;-76
2021/03/27 09:16:53;;;;;;;13.20;2.80;;;;;;;9.15;100.00;102134.19;1809074;79;26287;-77
2021/03/27 09:20:04;;;;;;;10.30;2.63;;;;;;;9.12;100.00;102140.20;1810277;79;26730;-75
2021/03/27 09:22:57;;;;;;;10.57;2.30;;;;;;;9.44;100.00;102153.09;1810328;79;26647;-76
2021/03/27 09:26:11;;;;;;;9.17;2.60;;;;;;;9.65;100.00;102148.25;1810303;79;26224;-75
2021/03/27 09:28:47;;;;;;;14.83;2.97;;;;;;;9.54;100.00;102148.57;1767455;78;26196;-75
2021/03/27 09:31:41;;;;;;;9.03;2.13;;;;;;;9.57;100.00;102162.52;1810180;79;26209;-78
2021/03/27 09:34:14;;;;;;;8.97;2.90;;;;;;;9.54;100.00;102156.08;1810453;79;26644;-76
2021/03/27 09:36:48;;;;;;;9.33;2.40;;;;;;;9.65;100.00;102161.27;1809870;78;26197;-75
2021/03/27 09:39:22;;;;;;;10.87;3.00;;;;;;;9.57;100.00;102155.58;1810277;79;26636;-75
2021/03/27 09:42:08;;;;;;;8.37;2.27;;;;;;;9.78;100.00;102160.98;1810108;79;26205;-76
2021/03/27 09:45:03;;;;;;;9.30;2.10;;;;;;;9.82;100.00;102161.63;1810324;79;26648;-75
2021/03/27 09:47:48;;;;;;;10.87;2.57;;;;;;;9.94;100.00;102177.67;1809974;78;26334;-75
2021/03/27 09:50:23;;;;;;;10.40;2.30;;;;;;;9.90;100.00;102179.80;1809840;78;26198;-75
2021/03/27 09:52:59;;;;;;;8.87;2.50;;;;;;;9.88;100.00;102191.14;1809889;78;26249;-75
2021/03/27 09:55:48;;;;;;;8.80;2.03;;;;;;;10.00;100.00;102185.02;1810320;79;26287;-75
2021/03/27 09:58:30;;;;;;;9.93;3.03;;;;;;;10.17;100.00;102185.62;1810299;79;26197;-75
2021/03/27 10:01:27;;;;;;;8.00;2.13;;;;;;;10.08;100.00;102184.30;1810177;78;26200;-75
2021/03/27 10:04:39;;;;;;;7.87;1.90;;;;;;;10.14;100.00;102195.23;1810213;79;26225;-75
2021/03/27 10:07:22;;;;;;;10.37;2.53;;;;;;;10.23;100.00;102197.09;1791765;79;26624;-76
2021/03/27 10:10:04;;;;;;;7.47;2.20;;;;;;;10.12;100.00;102199.37;1810179;78;26201;-75
2021/03/27 10:12:40;;;;;;;9.40;2.43;;;;;;;9.91;100.00;102193.44;1810103;79;26354;-75
2021/03/27 10:15:17;;;;;;;12.50;2.63;;;;;;;9.92;100.00;102191.52;1810287;76;26256;-76
2021/03/27 10:17:53;;;;;;;9.50;2.37;;;;;;;9.97;100.00;102199.37;1810292;78;26655;-76
2021/03/27 10:20:30;;;;;;;10.57;2.13;;;;;;;9.89;100.00;102212.26;1810268;79;26220;-76
2021/03/27 10:23:05;;;;;;;8.17;2.00;;;;;;;9.85;100.00;102202.75;1810495;79;26604;-75
2021/03/27 10:25:40;;;;;;;12.87;2.53;;;;;;;10.27;100.00;102203.29;1810409;79;26640;-75
2021/03/27 10:28:18;;;;;;;8.57;1.93;;;;;;;10.28;100.00;102210.53;1810666;79;26626;-75
2021/03/27 10:30:58;;;;;;;10.07;2.33;;;;;;;10.30;100.00;102215.85;1810379;79;26202;-75
2021/03/27 10:33:34;;;;;;;8.30;2.40;;;;;;;10.05;100.00;102226.73;1810540;79;26201;-75
2021/03/27 10:36:16;;;;;;;9.17;2.13;;;;;;;9.92;100.00;102218.73;1810116;79;26259;-75
2021/03/27 10:39:33;;;;;;;11.67;2.70;;;;;;;10.10;100.00;102230.15;1810104;78;26360;-77
2021/03/27 10:42:49;;;;;;;9.83;2.57;;;;;;;10.34;100.00;102228.14;1810136;79;26201;-76
2021/03/27 10:45:26;;;;;;;12.07;2.73;;;;;;;10.40;100.00;102224.34;1810239;79;26205;-76
2021/03/27 10:48:38;;;;;;;8.60;2.07;;;;;;;10.51;100.00;102220.67;1810374;79;26637;-75
2021/03/27 10:51:15;;;;;;;8.77;3.03;;;;;;;10.62;100.00;102228.08;1785060;78;26652;-76
2021/03/27 10:53:54;;;;;;;8.27;2.20;;;;;;;10.61;100.00;102223.61;1810386;78;26229;-76
2021/03/27 10:56:39;;;;;;;10.60;2.33;;;;;;;10.57;100.00;102227.17;1810437;79;26663;-76
2021/03/27 10:59:14;;;;;;;9.27;3.17;;;;;;;10.62;100.00;102226.69;1810047;78;26209;-76
2021/03/27 11:02:11;;;;;;;10.67;2.40;;;;;;;10.99;100.00;102239.55;1809619;79;26702;-75
2021/03/27 11:05:36;;;;;;;9.30;2.27;;;;;;;11.18;100.00;102242.33;1810302;79;26208;-74
2021/03/27 11:08:49;;;;;;;8.90;2.30;;;;;;;10.75;100.00;102257.47;1736705;82;26237;-76
2021/03/27 11:11:53;;;;;;;9.50;2.47;;;;;;;10.43;100.00;102251.65;1655537;83;26396;-75
2021/03/27 11:15:01;;;;;;;10.80;2.47;;;;;;;10.62;100.00;102261.42;1655346;83;26345;-75
2021/03/27 11:17:54;;;;;;;7.13;2.10;;;;;;;10.90;100.00;102260.52;1639429;87;26270;-74
2021/03/27 11:20:59;;;;;;;7.17;2.30;;;;;;;10.88;100.00;102246.86;1655419;87;26760;-75
2021/03/27 11:23:45;;;;;;;9.37;2.10;;;;;;;11.02;100.00;102274.33;1655165;87;26289;-74
2021/03/27 11:26:54;;;;;;;11.40;2.53;;;;;;;10.93;100.00;102258.61;1655309;87;26494;-73
2021/03/27 11:29:33;;;;;;;10.73;3.73;;;;;;;10.69;100.00;102257.95;1654440;87;26788;-75
2021/03/27 11:32:13;;;;;;;8.67;3.17;;;;;;;10.68;100.00;102264.59;1655284;82;26357;-74
2021/03/27 11:34:47;;;;;;;9.07;2.63;;;;;;;10.69;100.00;102260.73;1655359;87;26309;-74
2021/03/27 11:37:38;;;;;;;9.00;2.57;;;;;;;10.55;100.00;102269.63;1655375;83;26294;-74
2021/03/27 11:40:20;;;;;;;10.37;2.97;;;;;;;10.37;100.00;102276.25;1655409;87;26374;-75
2021/03/27 11:43:02;;;;;;;7.80;2.60;;;;;;;10.42;100.00;102282.75;1655420;87;26302;-75
2021/03/27 11:45:38;;;;;;;8.33;2.33;;;;;;;10.28;100.00;102273.02;1736037;79;26189;-73
2021/03/27 11:48:11;;;;;;;9.87;2.27;;;;;;;10.28;100.00;102283.29;1810394;79;26601;-74
2021/03/27 11:51:02;;;;;;;9.83;2.67;;;;;;;10.27;100.00;102277.46;1810011;78;26209;-74
2021/03/27 11:53:44;;;;;;;7.67;2.30;;;;;;;10.32;100.00;102276.14;1810242;79;26217;-74
2021/03/27 11:56:19;;;;;;;8.73;3.13;;;;;;;10.36;100.00;102268.45;1810324;79;26200;-75
2021/03/27 12:02:01;;;;;;;5.93;2.20;;;;;;;10.40;100.00;102268.79;1810337;79;26260;-75
2021/03/27 12:05:00;;;;;;;8.37;2.80;;;;;;;10.72;100.00;102276.05;1810693;78;26687;-74
2021/03/27 12:07:36;;;;;;;5.67;1.70;;;;;;;10.87;100.00;102272.97;1810517;79;26263;-73
2021/03/27 12:10:09;;;;;;;6.00;1.90;;;;;;;11.01;100.00;102274.02;1810195;79;26272;-74
2021/03/27 12:12:50;;;;;;;8.23;2.07;;;;;;;11.20;100.00;102274.91;1809405;78;26303;-75
2021/03/27 12:15:32;;;;;;;5.43;1.90;;;;;;;11.35;100.00;102279.30;1810194;75;26684;-74
2021/03/27 12:18:17;;;;;;;7.10;2.00;;;;;;;11.29;100.00;102275.32;1810244;79;26189;-74
2021/03/27 12:20:57;;;;;;;8.33;2.20;;;;;;;11.29;100.00;102286.45;1810239;79;26225;-75
2021/03/27 12:23:31;;;;;;;8.57;2.10;;;;;;;11.31;100.00;102289.26;1810165;79;26705;-75
2021/03/27 12:26:07;;;;;;;6.50;1.60;;;;;;;11.66;100.00;102277.80;1810093;78;26205;-76
2021/03/27 12:28:45;;;;;;;5.77;1.40;;;;;;;11.79;100.00;102276.06;1809942;79;26279;-76
2021/03/27 12:31:25;;;;;;;5.63;2.00;;;;;;;12.01;100.00;102277.45;1810331;78;26677;-76
2021/03/27 12:34:03;;;;;;;6.00;2.00;;;;;;;12.26;100.00;102280.53;1810025;79;26617;-76
2021/03/27 12:36:37;;;;;;;8.20;1.87;;;;;;;12.16;100.00;102279.00;1810390;79;26287;-75
2021/03/27 12:39:16;;;;;;;5.80;1.40;;;;;;;11.88;100.00;102281.17;1810309;79;26714;-76
2021/03/27 12:41:50;;;;;;;4.47;1.50;;;;;;;11.73;100.00;102285.43;1810393;79;26248;-75
2021/03/27 12:44:25;;;;;;;7.83;2.20;;;;;;;11.64;100.00;102287.48;1810274;79;26800;-74
2021/03/27 12:47:04;;;;;;;5.63;1.57;;;;;;;11.74;100.00;102289.91;1810517;79;26244;-75